Time;durP1;ratioP1;P1;durP2;ratioP2;P2;SDS_P1;SDS_P2;PMS_P1;PMS_P2;Temp;Humidity;BMP_temperature;BMP_pressure;BME280_temperature;BME280_humidity;BME280_pressure;Samples;Min_cycle;Max_cycle;Signal;HPM_P1;HPM_P2
2023/09/10 00:00:58;;;;;;;27.67;24.98;;;19.50;99.90;;;;;;5067275;28;20782;-76
2023/09/10 00:03:24;;;;;;;28.58;25.67;;;19.50;99.90;;;;;;5049023;28;20417;-76
2023/09/10 00:05:50;;;;;;;30.30;27.10;;;19.30;99.90;;;;;;5013442;28;20497;-76
2023/09/10 00:08:15;;;;;;;30.13;27.08;;;20.90;99.90;;;;;;5034960;28;20417;-76
2023/09/10 00:10:42;;;;;;;30.90;27.77;;;19.50;99.90;;;;;;5017427;28;20913;-76
2023/09/10 00:13:08;;;;;;;30.65;27.55;;;19.10;99.90;;;;;;5039643;28;20862;-76
2023/09/10 00:15:34;;;;;;;29.58;26.48;;;19.20;99.90;;;;;;5053753;28;20458;-76
2023/09/10 00:18:00;;;;;;;31.93;28.67;;;17.50;99.90;;;;;;5039785;28;20453;-76
2023/09/10 00:20:27;;;;;;;34.65;31.05;;;19.00;99.90;;;;;;5041997;28;20421;-75
2023/09/10 00:22:52;;;;;;;29.48;26.38;;;19.10;99.90;;;;;;5036746;28;20418;-75
2023/09/10 00:25:18;;;;;;;32.80;29.30;;;19.00;99.90;;;;;;5019642;28;20421;-76
2023/09/10 00:27:44;;;;;;;32.43;28.93;;;19.20;99.90;;;;;;5035586;28;20435;-75
2023/09/10 00:30:10;;;;;;;36.42;32.63;;;19.30;99.90;;;;;;5066262;28;20802;-75
2023/09/10 00:32:36;;;;;;;34.33;30.60;;;19.30;99.90;;;;;;5033949;28;20418;-75
2023/09/10 00:35:03;;;;;;;35.83;32.03;;;18.80;99.90;;;;;;5032190;28;20421;-75
2023/09/10 00:37:28;;;;;;;32.47;28.55;;;18.90;99.90;;;;;;5035160;28;20479;-75
2023/09/10 00:39:54;;;;;;;34.30;30.70;;;18.70;99.90;;;;;;5065834;28;20421;-75
2023/09/10 00:42:20;;;;;;;40.33;36.03;;;18.70;99.90;;;;;;5039406;28;20429;-75
2023/09/10 00:44:45;;;;;;;37.75;33.80;;;18.60;99.90;;;;;;5040756;28;20787;-75
2023/09/10 00:47:11;;;;;;;38.60;34.50;;;18.80;99.90;;;;;;5035046;28;20421;-75
2023/09/10 00:49:37;;;;;;;37.40;33.38;;;18.80;99.90;;;;;;5024491;28;20427;-75
2023/09/10 00:52:04;;;;;;;32.47;29.17;;;18.60;99.90;;;;;;5050544;28;20454;-75
2023/09/10 00:54:34;;;;;;;32.58;29.30;;;18.70;99.90;;;;;;5052351;28;20433;-76
2023/09/10 00:57:01;;;;;;;31.17;27.98;;;18.50;99.90;;;;;;5040189;28;20456;-76
2023/09/10 00:59:29;;;;;;;27.90;25.10;;;18.70;99.90;;;;;;5057495;28;20415;-75
2023/09/10 01:01:55;;;;;;;31.92;28.65;;;18.80;99.90;;;;;;5028593;28;20421;-74
2023/09/10 01:04:22;;;;;;;36.00;32.25;;;18.80;99.90;;;;;;5007523;28;20413;-74
2023/09/10 01:06:50;;;;;;;38.73;34.53;;;18.70;99.90;;;;;;5037701;28;20436;-74
2023/09/10 01:09:15;;;;;;;34.73;31.03;;;18.50;99.90;;;;;;5037046;28;20433;-74
2023/09/10 01:12:10;;;;;;;36.60;32.77;;;18.60;99.90;;;;;;5031564;28;20426;-74
2023/09/10 01:14:57;;;;;;;30.80;27.60;;;18.60;99.90;;;;;;5021488;28;20424;-74
2023/09/10 01:17:52;;;;;;;28.98;26.08;;;18.50;99.90;;;;;;5039225;28;20507;-74
2023/09/10 01:20:50;;;;;;;25.85;23.15;;;18.90;99.90;;;;;;5050889;28;20512;-74
2023/09/10 01:23:57;;;;;;;22.17;19.85;;;18.60;99.90;;;;;;5029984;28;20425;-74
2023/09/10 01:26:22;;;;;;;24.02;21.63;;;18.60;99.90;;;;;;5014369;28;20425;-74
2023/09/10 01:28:48;;;;;;;31.20;27.77;;;18.70;99.90;;;;;;5038717;28;20984;-74
2023/09/10 01:31:14;;;;;;;37.87;33.87;;;18.40;99.90;;;;;;5022503;28;20474;-74
2023/09/10 01:33:48;;;;;;;33.67;30.17;;;18.70;99.90;;;;;;5041010;28;20429;-74
2023/09/10 01:36:34;;;;;;;34.57;30.63;;;18.60;99.90;;;;;;5038932;28;20419;-75
2023/09/10 01:39:22;;;;;;;36.72;32.40;;;18.40;99.90;;;;;;5050624;28;20923;-76
2023/09/10 01:41:50;;;;;;;37.30;32.25;;;18.80;99.90;;;;;;5054302;28;20803;-76
2023/09/10 01:44:18;;;;;;;35.07;31.40;;;18.40;99.90;;;;;;5023018;28;20420;-76
2023/09/10 01:46:45;;;;;;;35.53;31.83;;;18.50;99.90;;;;;;5038757;28;20955;-75
2023/09/10 01:49:11;;;;;;;32.97;29.48;;;18.20;99.90;;;;;;5055245;28;20417;-75
2023/09/10 01:51:37;;;;;;;32.70;29.20;;;18.30;99.90;;;;;;5021404;28;20482;-75
2023/09/10 01:54:02;;;;;;;29.88;26.77;;;18.40;99.90;;;;;;5070140;28;20434;-75
2023/09/10 01:56:28;;;;;;;34.35;29.83;;;18.30;99.90;;;;;;5050270;28;20470;-75
2023/09/10 01:58:56;;;;;;;29.92;26.65;;;18.40;99.90;;;;;;5078327;28;20571;-75
2023/09/10 02:01:21;;;;;;;33.45;29.88;;;18.50;99.90;;;;;;5019228;28;20429;-75
2023/09/10 02:03:47;;;;;;;38.15;34.17;;;18.40;99.90;;;;;;5037592;28;20433;-75
2023/09/10 02:06:13;;;;;;;35.23;31.20;;;18.20;99.90;;;;;;5050523;28;20425;-75
2023/09/10 02:08:38;;;;;;;38.60;34.40;;;18.30;99.90;;;;;;5070808;28;20410;-75
2023/09/10 02:11:05;;;;;;;41.67;37.13;;;18.10;99.90;;;;;;5068770;28;21015;-75
2023/09/10 02:13:30;;;;;;;42.08;37.38;;;17.90;99.90;;;;;;5047374;28;20432;-75
2023/09/10 02:15:56;;;;;;;39.00;34.50;;;18.00;99.90;;;;;;5035332;28;20426;-75
2023/09/10 02:18:22;;;;;;;43.30;36.90;;;18.10;99.90;;;;;;5033914;28;20418;-75
2023/09/10 02:20:48;;;;;;;43.70;38.00;;;17.80;99.90;;;;;;5050545;28;20421;-75
2023/09/10 02:23:14;;;;;;;43.22;36.35;;;18.10;99.90;;;;;;5039616;28;20778;-75
2023/09/10 02:25:39;;;;;;;43.67;36.43;;;18.00;99.90;;;;;;5066415;28;20504;-76
2023/09/10 02:28:05;;;;;;;43.22;38.45;;;17.90;99.90;;;;;;5033264;28;20490;-75
2023/09/10 02:30:31;;;;;;;43.85;38.80;;;17.90;99.90;;;;;;5033135;28;20784;-75
2023/09/10 02:32:57;;;;;;;42.50;37.88;;;18.00;99.90;;;;;;5048860;28;20419;-75
2023/09/10 02:35:23;;;;;;;40.42;35.85;;;18.10;99.90;;;;;;5002739;28;20401;-75
2023/09/10 02:37:48;;;;;;;39.17;34.88;;;17.90;99.90;;;;;;5050791;28;20547;-75
2023/09/10 02:40:14;;;;;;;40.33;35.90;;;18.20;99.90;;;;;;5078666;28;20499;-75
2023/09/10 02:42:40;;;;;;;41.30;35.85;;;18.20;99.90;;;;;;5037610;28;20778;-76
2023/09/10 02:45:06;;;;;;;46.08;39.88;;;18.00;99.90;;;;;;5016867;28;20425;-76
2023/09/10 02:47:32;;;;;;;46.22;40.13;;;18.10;99.90;;;;;;5037446;28;20478;-75
2023/09/10 02:49:58;;;;;;;46.10;40.13;;;18.10;99.90;;;;;;5020504;28;20561;-75
2023/09/10 02:52:24;;;;;;;48.65;40.40;;;18.00;99.90;;;;;;5050131;28;20777;-76
2023/09/10 02:54:53;;;;;;;49.25;41.15;;;18.20;99.90;;;;;;5038969;28;20425;-75
2023/09/10 02:57:18;;;;;;;49.92;40.28;;;17.90;99.90;;;;;;5049918;28;20428;-74
2023/09/10 02:59:44;;;;;;;42.72;37.65;;;17.90;99.90;;;;;;5050702;28;20417;-75
2023/09/10 03:02:10;;;;;;;43.90;37.13;;;18.30;99.90;;;;;;5077782;28;20443;-75
2023/09/10 03:04:35;;;;;;;34.37;29.93;;;18.30;99.90;;;;;;5048099;28;20409;-75
2023/09/10 03:07:01;;;;;;;37.60;33.50;;;18.00;99.90;;;;;;5040877;28;20407;-75
2023/09/10 03:09:27;;;;;;;39.10;34.90;;;18.10;99.90;;;;;;5020708;28;20487;-74
2023/09/10 03:11:53;;;;;;;45.47;38.07;;;18.20;99.90;;;;;;5034066;28;20425;-75
2023/09/10 03:14:19;;;;;;;42.20;37.53;;;17.80;99.90;;;;;;5066252;28;20432;-75
2023/09/10 03:16:44;;;;;;;43.27;37.70;;;17.90;99.90;;;;;;5034862;28;20422;-75
2023/09/10 03:19:10;;;;;;;42.90;38.05;;;17.70;99.90;;;;;;5034702;28;20888;-74
2023/09/10 03:21:37;;;;;;;44.10;37.60;;;17.90;99.90;;;;;;5041387;28;20436;-75
2023/09/10 03:24:04;;;;;;;40.03;35.72;;;17.90;99.90;;;;;;5040642;28;20427;-75
2023/09/10 03:26:29;;;;;;;40.38;35.55;;;17.80;99.90;;;;;;5022399;28;20452;-74
2023/09/10 03:28:55;;;;;;;43.17;35.63;;;17.60;99.90;;;;;;5001753;28;20417;-74
2023/09/10 03:31:21;;;;;;;40.72;33.65;;;17.70;99.90;;;;;;5051143;28;20478;-75
2023/09/10 03:33:48;;;;;;;41.40;35.90;;;18.00;99.90;;;;;;5033795;28;20910;-75
2023/09/10 03:36:14;;;;;;;38.45;33.42;;;17.60;99.90;;;;;;5034077;28;20482;-74
2023/09/10 03:38:40;;;;;;;40.25;33.28;;;17.70;99.90;;;;;;5036324;28;20413;-74
2023/09/10 03:41:05;;;;;;;43.25;34.00;;;17.70;99.90;;;;;;5038125;28;20423;-74
2023/09/10 03:43:31;;;;;;;38.67;33.73;;;17.40;99.90;;;;;;5040384;28;20425;-74
2023/09/10 03:45:57;;;;;;;40.90;34.37;;;17.80;99.90;;;;;;5034232;28;20409;-75
2023/09/10 03:48:22;;;;;;;37.78;33.65;;;17.40;99.90;;;;;;5018063;28;20409;-75
2023/09/10 03:50:49;;;;;;;41.25;34.60;;;17.40;99.90;;;;;;5031671;28;20912;-75
2023/09/10 03:53:14;;;;;;;35.72;31.90;;;17.60;99.90;;;;;;5045975;28;20436;-74
2023/09/10 03:55:41;;;;;;;40.92;33.97;;;17.40;99.90;;;;;;5064882;28;20493;-75
2023/09/10 03:58:06;;;;;;;37.17;32.08;;;17.60;99.90;;;;;;5036716;28;20745;-75
2023/09/10 04:00:33;;;;;;;36.60;32.15;;;17.50;99.90;;;;;;5013293;28;20430;-74
2023/09/10 04:02:59;;;;;;;45.87;37.03;;;17.70;99.90;;;;;;5027383;28;20421;-74
2023/09/10 04:05:25;;;;;;;43.72;37.85;;;17.60;99.90;;;;;;5031918;28;20428;-75
2023/09/10 04:07:50;;;;;;;42.17;33.33;;;17.40;99.90;;;;;;5083209;28;20422;-75
2023/09/10 04:10:16;;;;;;;39.27;33.27;;;17.70;99.90;;;;;;5042888;28;20509;-75
2023/09/10 04:12:42;;;;;;;46.90;38.42;;;17.60;99.90;;;;;;5015776;28;20420;-75
2023/09/10 04:15:08;;;;;;;43.25;36.25;;;17.80;99.90;;;;;;5031789;28;20459;-75
2023/09/10 04:17:34;;;;;;;50.80;39.08;;;17.60;99.90;;;;;;5046627;28;20441;-75
2023/09/10 04:19:59;;;;;;;51.63;40.70;;;17.40;99.90;;;;;;5041774;28;20421;-75
2023/09/10 04:22:26;;;;;;;41.03;36.03;;;17.60;99.90;;;;;;5053690;28;20878;-75
2023/09/10 04:24:51;;;;;;;42.97;35.38;;;17.60;99.90;;;;;;5064844;28;20928;-74
2023/09/10 04:27:17;;;;;;;47.40;37.93;;;17.80;99.90;;;;;;5053296;28;20411;-75
2023/09/10 04:29:43;;;;;;;47.30;37.17;;;17.80;99.90;;;;;;5019525;28;20547;-75
2023/09/10 04:32:09;;;;;;;40.60;35.90;;;17.50;99.90;;;;;;5038036;28;20432;-74
2023/09/10 04:34:34;;;;;;;46.38;37.13;;;17.50;99.90;;;;;;5016538;28;20788;-75
2023/09/10 04:37:03;;;;;;;37.60;33.28;;;17.50;99.90;;;;;;5033278;28;20789;-75
2023/09/10 04:39:28;;;;;;;37.33;30.15;;;17.50;99.90;;;;;;5032594;28;20430;-75
2023/09/10 04:41:54;;;;;;;33.28;29.65;;;17.20;99.90;;;;;;5032847;28;20440;-74
2023/09/10 04:44:20;;;;;;;29.92;26.70;;;17.00;99.90;;;;;;5029898;28;20425;-75
2023/09/10 04:46:46;;;;;;;28.83;25.83;;;17.20;99.90;;;;;;5033142;28;20453;-74
2023/09/10 04:49:12;;;;;;;28.05;25.05;;;17.30;99.90;;;;;;5025311;28;21005;-75
2023/09/10 04:51:38;;;;;;;30.13;25.03;;;17.40;99.90;;;;;;5039643;28;20755;-74
2023/09/10 04:54:03;;;;;;;31.13;27.13;;;16.90;99.90;;;;;;5014175;28;21020;-74
2023/09/10 04:56:29;;;;;;;30.75;27.48;;;17.00;99.90;;;;;;5033457;28;20417;-74
2023/09/10 04:58:55;;;;;;;28.77;25.67;;;17.10;99.90;;;;;;5032487;28;20417;-74
2023/09/10 05:01:21;;;;;;;28.45;25.35;;;17.20;99.90;;;;;;5032545;28;20504;-75
2023/09/10 05:03:46;;;;;;;27.80;24.80;;;16.90;99.90;;;;;;5019849;28;20432;-75
2023/09/10 05:06:13;;;;;;;24.63;21.57;;;16.80;99.90;;;;;;5017033;28;20409;-75
2023/09/10 05:08:39;;;;;;;25.00;22.45;;;17.20;99.90;;;;;;5032700;28;20871;-74
2023/09/10 05:11:05;;;;;;;27.67;24.55;;;16.90;99.90;;;;;;5033083;28;20512;-74
2023/09/10 05:13:31;;;;;;;28.15;25.20;;;16.90;99.90;;;;;;5014674;28;20448;-74
2023/09/10 05:15:57;;;;;;;28.20;24.83;;;16.80;99.90;;;;;;5065494;28;20504;-74
2023/09/10 05:18:26;;;;;;;24.03;21.63;;;17.00;99.90;;;;;;5050729;28;20465;-74
2023/09/10 05:20:52;;;;;;;23.70;21.10;;;17.00;99.90;;;;;;5035277;28;20429;-74
2023/09/10 05:23:22;;;;;;;25.00;22.40;;;16.90;99.90;;;;;;5034994;28;20418;-73
2023/09/10 05:25:49;;;;;;;27.52;23.70;;;16.90;99.90;;;;;;5029745;28;20914;-74
2023/09/10 05:28:15;;;;;;;30.60;26.67;;;17.00;99.90;;;;;;5026716;28;20484;-74
2023/09/10 05:30:41;;;;;;;30.45;26.20;;;16.90;99.90;;;;;;5040430;28;20423;-74
2023/09/10 05:33:06;;;;;;;26.50;23.70;;;16.90;99.90;;;;;;5019254;28;20459;-73
2023/09/10 05:35:32;;;;;;;29.73;24.30;;;17.10;99.90;;;;;;5023216;28;20482;-74
2023/09/10 05:37:58;;;;;;;27.20;24.33;;;17.00;99.90;;;;;;5035994;28;20417;-74
2023/09/10 05:40:25;;;;;;;26.05;23.38;;;17.10;99.90;;;;;;5016876;28;20406;-75
2023/09/10 05:42:50;;;;;;;26.85;23.90;;;17.20;99.90;;;;;;5066873;28;20421;-74
2023/09/10 05:45:16;;;;;;;29.67;26.48;;;17.30;99.90;;;;;;5042985;28;20434;-74
2023/09/10 05:47:42;;;;;;;27.77;24.20;;;17.20;99.90;;;;;;5071978;28;20415;-74
2023/09/10 05:50:08;;;;;;;25.47;22.80;;;17.50;99.90;;;;;;5054450;28;20398;-74
2023/09/10 05:52:34;;;;;;;26.43;23.07;;;17.40;99.90;;;;;;5040926;28;20409;-74
2023/09/10 05:54:59;;;;;;;27.00;24.10;;;17.30;99.90;;;;;;5037965;28;20412;-74
2023/09/10 05:57:25;;;;;;;29.55;25.73;;;17.50;99.90;;;;;;5034676;28;20470;-74
2023/09/10 05:59:51;;;;;;;29.27;26.25;;;17.40;99.90;;;;;;5034192;28;20433;-74
2023/09/10 06:02:16;;;;;;;30.30;26.57;;;17.60;99.90;;;;;;5030987;28;20482;-74
2023/09/10 06:04:42;;;;;;;33.53;28.75;;;17.60;99.90;;;;;;5039094;28;20439;-74
2023/09/10 06:07:08;;;;;;;34.75;30.42;;;17.90;99.90;;;;;;5035560;28;20509;-74
2023/09/10 06:09:33;;;;;;;31.17;27.65;;;17.80;99.90;;;;;;5036163;28;20420;-74
2023/09/10 06:12:02;;;;;;;29.17;25.67;;;17.70;99.90;;;;;;5034407;28;20463;-74
2023/09/10 06:14:32;;;;;;;33.55;30.05;;;17.90;99.90;;;;;;5035637;28;20512;-75
2023/09/10 06:16:58;;;;;;;36.00;31.58;;;18.00;99.90;;;;;;5020431;28;20893;-76
2023/09/10 06:19:26;;;;;;;32.15;28.67;;;18.00;99.90;;;;;;5052614;28;20473;-84
2023/09/10 06:21:52;;;;;;;36.30;32.30;;;18.10;99.90;;;;;;5032834;28;20443;-80
2023/09/10 06:24:18;;;;;;;37.30;33.27;;;18.20;99.90;;;;;;5018783;28;20453;-80
2023/09/10 06:26:44;;;;;;;34.50;30.73;;;18.60;99.90;;;;;;5017982;28;20435;-78
2023/09/10 06:29:11;;;;;;;32.47;29.02;;;18.80;99.90;;;;;;5017017;28;20504;-79
2023/09/10 06:31:37;;;;;;;36.07;31.67;;;18.60;99.90;;;;;;5033478;28;20405;-78
2023/09/10 06:34:04;;;;;;;35.47;31.67;;;18.80;99.90;;;;;;5035782;28;20433;-81
2023/09/10 06:36:31;;;;;;;37.97;32.58;;;18.80;99.90;;;;;;5024932;28;20502;-79
2023/09/10 06:38:56;;;;;;;45.92;38.20;;;19.10;99.90;;;;;;5033313;28;20422;-80
2023/09/10 06:41:22;;;;;;;45.47;40.28;;;19.20;99.90;;;;;;5053718;28;20761;-76
2023/09/10 06:43:48;;;;;;;48.30;40.53;;;19.20;99.90;;;;;;5027378;28;20414;-78
2023/09/10 06:46:13;;;;;;;44.37;38.73;;;19.30;99.90;;;;;;5019380;28;20431;-78
2023/09/10 06:48:39;;;;;;;43.97;39.05;;;19.60;99.90;;;;;;5050214;28;20425;-77
2023/09/10 06:51:05;;;;;;;45.90;40.90;;;19.60;99.90;;;;;;5039775;28;20428;-77
2023/09/10 06:53:31;;;;;;;44.42;39.53;;;19.90;99.90;;;;;;5051479;28;20574;-77
2023/09/10 06:55:57;;;;;;;47.80;41.40;;;20.10;99.90;;;;;;5031887;28;20440;-77
2023/09/10 06:58:23;;;;;;;48.08;42.88;;;20.00;99.90;;;;;;5067509;28;20421;-78
2023/09/10 07:00:48;;;;;;;47.47;40.58;;;19.80;99.90;;;;;;5031515;28;20425;-77
2023/09/10 07:03:14;;;;;;;47.30;41.37;;;22.10;99.90;;;;;;5015875;28;20417;-77
2023/09/10 07:05:41;;;;;;;47.83;42.38;;;20.30;99.90;;;;;;5031019;28;21226;-78
2023/09/10 07:08:08;;;;;;;47.22;42.20;;;20.20;99.90;;;;;;5029712;28;20432;-79
2023/09/10 07:10:35;;;;;;;46.28;41.25;;;20.30;99.90;;;;;;5025984;28;20425;-79
2023/09/10 07:13:05;;;;;;;46.63;41.53;;;20.50;99.90;;;;;;5033854;28;20449;-78
2023/09/10 07:15:31;;;;;;;42.65;38.13;;;20.30;99.90;;;;;;5047556;28;20444;-79
2023/09/10 07:17:57;;;;;;;44.90;40.17;;;20.30;99.90;;;;;;5038080;28;20421;-79
2023/09/10 07:20:23;;;;;;;44.65;40.03;;;20.60;99.90;;;;;;5060752;28;20421;-81
2023/09/10 07:22:48;;;;;;;43.42;38.72;;;20.20;99.90;;;;;;5051220;28;20425;-80
2023/09/10 07:25:14;;;;;;;43.70;39.20;;;20.60;99.90;;;;;;5031179;28;20817;-82
2023/09/10 07:27:40;;;;;;;42.22;37.78;;;20.60;99.90;;;;;;5035456;28;20417;-82
2023/09/10 07:30:06;;;;;;;40.08;35.78;;;20.90;99.90;;;;;;5035277;28;20416;-80
2023/09/10 07:32:32;;;;;;;40.40;35.80;;;21.50;99.90;;;;;;5014045;28;20422;-79
2023/09/10 07:34:57;;;;;;;38.65;34.55;;;21.00;99.90;;;;;;5025318;28;20990;-80
2023/09/10 07:37:23;;;;;;;38.60;34.40;;;21.50;99.90;;;;;;5046107;28;20426;-79
2023/09/10 07:39:49;;;;;;;37.33;33.33;;;21.70;99.90;;;;;;5029642;28;20437;-79
2023/09/10 07:42:15;;;;;;;35.50;31.73;;;21.70;99.90;;;;;;5037715;28;20408;-79
2023/09/10 07:44:41;;;;;;;36.25;32.42;;;22.20;99.90;;;;;;5040102;28;20409;-79
2023/09/10 07:47:08;;;;;;;35.90;32.20;;;22.30;99.90;;;;;;5039266;28;20431;-79
2023/09/10 07:49:33;;;;;;;37.83;32.60;;;22.40;99.90;;;;;;5042619;28;20419;-80
2023/09/10 07:51:59;;;;;;;35.63;31.87;;;22.50;99.90;;;;;;5034056;28;20413;-78
2023/09/10 07:54:25;;;;;;;35.17;31.48;;;22.80;99.90;;;;;;5016634;28;20951;-79
2023/09/10 07:56:50;;;;;;;34.67;31.03;;;22.90;99.90;;;;;;5052132;28;20426;-79
2023/09/10 07:59:16;;;;;;;34.45;29.65;;;22.90;99.90;;;;;;5041654;28;20927;-79
2023/09/10 08:01:42;;;;;;;33.72;30.23;;;23.10;99.90;;;;;;5041427;28;20448;-80
2023/09/10 08:04:08;;;;;;;32.63;29.33;;;23.00;99.90;;;;;;5028528;28;20429;-80
2023/09/10 08:06:33;;;;;;;32.77;29.30;;;23.20;99.90;;;;;;5032395;28;20429;-79
2023/09/10 08:08:59;;;;;;;31.95;28.55;;;23.10;99.90;;;;;;5039774;28;20738;-79
2023/09/10 08:11:25;;;;;;;32.17;28.85;;;23.40;99.90;;;;;;5026366;28;20530;-80
2023/09/10 08:13:51;;;;;;;31.90;28.53;;;23.60;99.90;;;;;;5027641;28;20475;-79
2023/09/10 08:16:17;;;;;;;30.50;27.38;;;23.80;99.90;;;;;;5022953;28;20422;-79
2023/09/10 08:18:44;;;;;;;29.67;26.48;;;23.90;99.90;;;;;;5033618;28;20418;-79
2023/09/10 08:21:10;;;;;;;28.50;25.33;;;24.20;99.90;;;;;;5040715;28;20412;-80
2023/09/10 08:23:36;;;;;;;30.50;27.25;;;24.40;99.90;;;;;;5022615;28;20423;-79
2023/09/10 08:26:03;;;;;;;29.65;26.50;;;24.40;99.90;;;;;;5029713;28;20435;-79
2023/09/10 08:28:28;;;;;;;29.25;26.20;;;24.20;99.90;;;;;;5030088;28;20483;-79
2023/09/10 08:30:54;;;;;;;30.00;27.05;;;24.30;99.90;;;;;;5029180;28;20419;-79
2023/09/10 08:33:21;;;;;;;28.23;25.37;;;23.90;99.90;;;;;;5014263;28;20477;-80
2023/09/10 08:35:51;;;;;;;26.05;23.27;;;24.20;99.90;;;;;;5037588;28;20993;-79
2023/09/10 08:38:17;;;;;;;27.52;24.58;;;24.60;99.90;;;;;;5025926;28;20999;-80
2023/09/10 08:40:51;;;;;;;26.33;23.50;;;24.80;99.90;;;;;;5034464;28;20402;-80
2023/09/10 08:43:23;;;;;;;27.08;24.33;;;24.90;99.90;;;;;;5019122;28;20467;-80
2023/09/10 08:45:50;;;;;;;25.30;22.50;;;24.60;99.90;;;;;;5063671;28;20420;-83
2023/09/10 08:48:18;;;;;;;26.33;22.73;;;24.80;99.90;;;;;;5024595;28;20427;-80
2023/09/10 08:50:46;;;;;;;23.17;20.75;;;25.00;99.90;;;;;;5037633;28;20420;-80
2023/09/10 08:53:13;;;;;;;23.50;20.57;;;25.40;99.90;;;;;;5012970;28;20874;-80
2023/09/10 08:55:42;;;;;;;22.38;19.25;;;25.50;99.90;;;;;;5024443;28;20431;-80
2023/09/10 08:58:11;;;;;;;21.83;19.55;;;25.70;99.90;;;;;;5026270;28;20424;-80
2023/09/10 09:00:38;;;;;;;19.47;17.47;;;25.60;99.90;;;;;;5022499;28;20427;-77
2023/09/10 09:03:04;;;;;;;19.90;17.77;;;25.80;99.90;;;;;;5026012;28;20425;-77
2023/09/10 09:05:31;;;;;;;18.05;15.68;;;25.30;99.90;;;;;;5039279;28;20773;-77
2023/09/10 09:08:14;;;;;;;17.60;14.82;;;25.50;99.90;;;;;;5022438;28;20933;-78
2023/09/10 09:10:40;;;;;;;20.58;18.25;;;25.70;99.90;;;;;;5041611;28;20415;-80
2023/09/10 09:13:09;;;;;;;23.00;15.13;;;25.70;99.90;;;;;;5022190;28;20420;-79
2023/09/10 09:15:38;;;;;;;19.73;15.00;;;25.60;99.90;;;;;;5012357;28;20428;-79
2023/09/10 09:18:08;;;;;;;16.05;14.30;;;25.90;99.90;;;;;;5049820;28;20425;-79
2023/09/10 09:20:36;;;;;;;15.02;13.52;;;25.80;99.90;;;;;;5030459;28;20442;-80
2023/09/10 09:23:25;;;;;;;16.48;13.85;;;25.90;99.90;;;;;;5045388;28;21079;-80
2023/09/10 09:25:51;;;;;;;18.08;13.30;;;26.10;99.90;;;;;;5050135;28;20507;-71
2023/09/10 09:28:18;;;;;;;18.70;13.80;;;26.40;99.90;;;;;;5034049;28;20503;-72
2023/09/10 09:30:44;;;;;;;15.07;12.77;;;26.40;99.90;;;;;;5046998;28;20508;-72
2023/09/10 09:33:10;;;;;;;17.80;12.98;;;26.50;99.90;;;;;;5031335;28;20424;-72
2023/09/10 09:35:36;;;;;;;16.53;14.20;;;27.00;99.90;;;;;;5020106;28;20432;-73
2023/09/10 09:38:13;;;;;;;14.23;11.80;;;26.80;99.90;;;;;;5018376;28;21566;-73
2023/09/10 09:40:39;;;;;;;17.42;14.45;;;27.50;99.90;;;;;;5033453;28;20491;-73
2023/09/10 09:43:09;;;;;;;14.68;12.48;;;27.10;99.90;;;;;;5035206;28;20425;-72
2023/09/10 09:45:36;;;;;;;15.10;13.35;;;27.00;99.90;;;;;;5035597;28;20420;-73
2023/09/10 09:48:05;;;;;;;15.77;13.27;;;27.20;99.90;;;;;;5035757;28;20421;-72
2023/09/10 09:50:32;;;;;;;14.82;12.85;;;26.90;99.90;;;;;;5051474;28;20429;-71
2023/09/10 09:52:58;;;;;;;15.23;12.63;;;27.30;99.90;;;;;;5048795;28;20413;-72
2023/09/10 09:55:24;;;;;;;18.10;12.40;;;27.00;99.90;;;;;;5068551;28;20423;-73
2023/09/10 09:57:50;;;;;;;18.55;12.13;;;27.10;99.90;;;;;;5034133;28;20437;-71
2023/09/10 10:00:16;;;;;;;15.27;10.68;;;27.00;99.90;;;;;;5030582;28;20516;-73
2023/09/10 10:02:43;;;;;;;15.60;10.65;;;27.30;99.90;;;;;;5032095;28;20428;-73
2023/09/10 10:05:09;;;;;;;21.50;11.05;;;27.70;99.90;;;;;;5044409;28;20421;-72
2023/09/10 10:07:40;;;;;;;14.77;10.48;;;28.00;99.90;;;;;;5025364;28;20742;-73
2023/09/10 10:10:07;;;;;;;11.18;10.05;;;28.10;99.90;;;;;;5028700;28;21126;-72
2023/09/10 10:12:33;;;;;;;13.60;10.52;;;28.00;99.90;;;;;;5012206;28;20425;-72
2023/09/10 10:15:00;;;;;;;12.80;10.20;;;28.00;99.90;;;;;;5036773;28;20784;-73
2023/09/10 10:17:26;;;;;;;14.45;10.60;;;28.00;99.90;;;;;;5031677;28;20425;-73
2023/09/10 10:19:52;;;;;;;14.65;9.70;;;28.10;99.90;;;;;;5043925;28;20417;-73
2023/09/10 10:22:19;;;;;;;12.55;9.30;;;28.10;99.90;;;;;;5042590;28;20454;-73
2023/09/10 10:24:45;;;;;;;12.98;9.88;;;27.90;99.90;;;;;;5037946;28;20421;-73
2023/09/10 10:27:13;;;;;;;16.05;10.77;;;28.30;99.90;;;;;;5034633;28;20486;-73
2023/09/10 10:29:40;;;;;;;14.13;10.07;;;28.60;99.90;;;;;;5019330;28;20426;-72
2023/09/10 10:32:10;;;;;;;15.07;10.57;;;28.30;99.90;;;;;;5029466;28;20462;-72
2023/09/10 10:34:38;;;;;;;11.02;9.52;;;28.30;99.90;;;;;;5025397;28;20496;-72
2023/09/10 10:37:19;;;;;;;14.93;10.27;;;27.70;99.90;;;;;;5027364;28;20431;-71
2023/09/10 10:40:06;;;;;;;15.73;10.10;;;27.90;99.90;;;;;;5045019;28;21541;-72
2023/09/10 10:43:03;;;;;;;13.50;9.20;;;27.90;99.90;;;;;;5018431;28;20506;-73
2023/09/10 10:45:30;;;;;;;13.57;9.97;;;28.10;99.90;;;;;;5037908;28;20492;-73
2023/09/10 10:48:03;;;;;;;17.60;8.88;;;28.50;99.90;;;;;;5008283;28;20436;-73
2023/09/10 10:50:31;;;;;;;15.32;8.63;;;28.60;99.90;;;;;;5013657;28;20463;-72
2023/09/10 10:53:03;;;;;;;13.48;10.10;;;28.80;99.90;;;;;;5028713;28;20814;-73
2023/09/10 10:55:32;;;;;;;11.18;9.35;;;28.50;99.90;;;;;;5024410;28;20784;-72
2023/09/10 10:57:59;;;;;;;13.45;9.45;;;28.20;99.90;;;;;;5016201;28;20415;-73
2023/09/10 11:00:26;;;;;;;13.18;10.00;;;28.80;99.90;;;;;;5034225;28;20453;-73
2023/09/10 11:03:09;;;;;;;12.43;9.48;;;28.30;99.90;;;;;;5019248;28;20428;-72
2023/09/10 11:05:54;;;;;;;15.95;9.00;;;28.70;99.90;;;;;;5033481;28;20459;-72
2023/09/10 11:08:26;;;;;;;12.32;8.75;;;28.80;99.90;;;;;;5017719;28;20413;-72
2023/09/10 11:10:53;;;;;;;11.00;8.30;;;29.10;99.90;;;;;;5017975;28;20990;-73
2023/09/10 11:13:18;;;;;;;11.50;8.67;;;29.00;99.90;;;;;;5034122;28;20900;-73
2023/09/10 11:16:06;;;;;;;14.77;8.90;;;29.30;99.90;;;;;;5032705;28;20505;-73
2023/09/10 11:18:35;;;;;;;12.13;8.90;;;29.10;99.90;;;;;;5031645;28;20408;-73
2023/09/10 11:21:05;;;;;;;12.05;8.07;;;28.70;99.90;;;;;;5027798;28;20491;-73
2023/09/10 11:23:32;;;;;;;14.43;8.98;;;29.00;99.90;;;;;;5016774;28;20479;-73
2023/09/10 11:26:13;;;;;;;10.18;8.23;;;27.50;99.90;;;;;;5065961;28;20496;-73
2023/09/10 11:28:50;;;;;;;12.80;7.78;;;29.40;99.90;;;;;;5050714;28;20623;-73
2023/09/10 11:31:45;;;;;;;14.55;8.13;;;29.70;99.90;;;;;;5017048;28;20433;-72
2023/09/10 11:34:17;;;;;;;13.57;8.00;;;29.90;99.90;;;;;;5050395;28;20414;-72
2023/09/10 11:36:54;;;;;;;12.13;8.15;;;30.10;99.90;;;;;;5033800;28;20429;-72
2023/09/10 11:39:20;;;;;;;13.18;7.93;;;29.90;99.90;;;;;;5033719;28;20422;-72
2023/09/10 11:41:48;;;;;;;15.13;7.68;;;29.50;99.90;;;;;;5016630;28;20504;-72
2023/09/10 11:44:14;;;;;;;17.13;8.07;;;29.80;99.90;;;;;;5017136;28;20782;-72
2023/09/10 11:46:41;;;;;;;13.60;7.60;;;30.10;99.90;;;;;;5015632;28;20409;-72
2023/09/10 11:49:07;;;;;;;11.10;7.55;;;30.00;99.90;;;;;;5032814;28;20425;-73
2023/09/10 11:51:40;;;;;;;17.27;7.80;;;30.30;99.90;;;;;;5017826;28;20520;-72
2023/09/10 11:54:06;;;;;;;13.50;7.78;;;30.30;99.90;;;;;;5033700;28;20425;-72
2023/09/10 11:56:33;;;;;;;15.90;7.68;;;30.40;99.90;;;;;;5016350;28;20543;-72
2023/09/10 11:59:00;;;;;;;15.25;7.70;;;30.30;99.90;;;;;;5066753;28;20421;-72
2023/09/10 12:01:25;;;;;;;14.45;7.82;;;30.00;99.90;;;;;;5066774;28;20753;-72
2023/09/10 12:03:51;;;;;;;14.13;7.28;;;30.00;99.90;;;;;;5033809;28;20413;-72
2023/09/10 12:06:17;;;;;;;12.30;7.30;;;30.10;99.90;;;;;;5032176;28;20421;-72
2023/09/10 12:08:43;;;;;;;15.13;6.97;;;30.20;99.90;;;;;;5033290;28;20920;-73
2023/09/10 12:11:11;;;;;;;14.82;7.18;;;30.60;99.90;;;;;;5017632;28;20409;-73
2023/09/10 12:13:38;;;;;;;14.98;7.20;;;30.20;99.90;;;;;;5032108;28;20773;-73
2023/09/10 12:16:06;;;;;;;14.27;7.18;;;30.70;99.90;;;;;;5032029;28;20421;-73
2023/09/10 12:18:32;;;;;;;13.95;7.70;;;30.80;99.90;;;;;;5047909;28;20789;-73
2023/09/10 12:20:59;;;;;;;17.48;7.53;;;30.40;99.90;;;;;;5022586;28;20468;-73
2023/09/10 12:23:25;;;;;;;16.23;7.93;;;30.30;99.90;;;;;;5026131;28;20525;-73
2023/09/10 12:26:00;;;;;;;18.10;7.40;;;29.80;99.90;;;;;;5012624;28;20539;-73
2023/09/10 12:28:26;;;;;;;13.57;6.43;;;30.70;99.90;;;;;;5047252;28;20444;-73
2023/09/10 12:30:52;;;;;;;17.40;6.93;;;30.80;99.90;;;;;;5030003;28;20933;-72